sensor_id;sensor_type;location;lat;lon;timestamp;pressure;altitude;pressure_sealevel;temperature;humidity
42591;BME280;28218;53.342;-6.216;2023-02-01T00:01:21;102325.63;;;7.61;100.00
42591;BME280;28218;53.342;-6.216;2023-02-01T00:03:49;102330.03;;;7.60;100.00
42591;BME280;28218;53.342;-6.216;2023-02-01T00:06:19;102332.03;;;7.57;100.00
42591;BME280;28218;53.342;-6.216;2023-02-01T00:08:48;102318.00;;;7.58;100.00
42591;BME280;28218;53.342;-6.216;2023-02-01T00:11:16;102306.88;;;7.54;100.00
42591;BME280;28218;53.342;-6.216;2023-02-01T00:13:44;102308.66;;;7.54;100.00
42591;BME280;28218;53.342;-6.216;2023-02-01T00:16:15;102316.53;;;7.54;100.00
42591;BME280;28218;53.342;-6.216;2023-02-01T00:18:44;102314.75;;;7.54;100.00
42591;BME280;28218;53.342;-6.216;2023-02-01T00:21:14;102315.78;;;7.52;100.00
42591;BME280;28218;53.342;-6.216;2023-02-01T00:23:44;102315.78;;;7.52;100.00
42591;BME280;28218;53.342;-6.216;2023-02-01T00:26:15;102313.16;;;7.52;100.00
42591;BME280;28218;53.342;-6.216;2023-02-01T00:28:44;102304.34;;;7.53;100.00
42591;BME280;28218;53.342;-6.216;2023-02-01T00:31:13;102314.50;;;7.57;100.00
42591;BME280;28218;53.342;-6.216;2023-02-01T00:33:41;102309.25;;;7.57;100.00
42591;BME280;28218;53.342;-6.216;2023-02-01T00:36:10;102317.38;;;7.54;100.00
42591;BME280;28218;53.342;-6.216;2023-02-01T00:38:39;102323.34;;;7.56;100.00
42591;BME280;28218;53.342;-6.216;2023-02-01T00:41:11;102318.22;;;7.55;100.00
42591;BME280;28218;53.342;-6.216;2023-02-01T00:43:40;102303.31;;;7.55;100.00
42591;BME280;28218;53.342;-6.216;2023-02-01T00:46:09;102301.72;;;7.53;100.00
42591;BME280;28218;53.342;-6.216;2023-02-01T00:48:38;102325.13;;;7.56;100.00
42591;BME280;28218;53.342;-6.216;2023-02-01T00:51:07;102323.25;;;7.58;100.00
42591;BME280;28218;53.342;-6.216;2023-02-01T00:53:36;102328.25;;;7.61;100.00
42591;BME280;28218;53.342;-6.216;2023-02-01T00:56:05;102331.81;;;7.60;100.00
42591;BME280;28218;53.342;-6.216;2023-02-01T00:58:36;102328.03;;;7.64;100.00
42591;BME280;28218;53.342;-6.216;2023-02-01T01:01:06;102321.13;;;7.63;100.00
42591;BME280;28218;53.342;-6.216;2023-02-01T01:03:36;102344.00;;;7.61;100.00
42591;BME280;28218;53.342;-6.216;2023-02-01T01:06:07;102335.28;;;7.60;100.00
42591;BME280;28218;53.342;-6.216;2023-02-01T01:08:36;102326.13;;;7.66;100.00
42591;BME280;28218;53.342;-6.216;2023-02-01T01:11:06;102331.16;;;7.69;100.00
42591;BME280;28218;53.342;-6.216;2023-02-01T01:13:37;102329.19;;;7.73;100.00
42591;BME280;28218;53.342;-6.216;2023-02-01T01:16:06;102319.72;;;7.70;100.00
42591;BME280;28218;53.342;-6.216;2023-02-01T01:18:35;102315.63;;;7.66;100.00
42591;BME280;28218;53.342;-6.216;2023-02-01T01:21:04;102325.94;;;7.69;100.00
42591;BME280;28218;53.342;-6.216;2023-02-01T01:23:34;102327.72;;;7.68;100.00
42591;BME280;28218;53.342;-6.216;2023-02-01T01:26:05;102334.75;;;7.68;100.00
42591;BME280;28218;53.342;-6.216;2023-02-01T01:28:33;102329.59;;;7.66;100.00
42591;BME280;28218;53.342;-6.216;2023-02-01T01:31:03;102333.91;;;7.67;100.00
42591;BME280;28218;53.342;-6.216;2023-02-01T01:33:32;102341.03;;;7.65;100.00
42591;BME280;28218;53.342;-6.216;2023-02-01T01:36:00;102325.31;;;7.65;100.00
42591;BME280;28218;53.342;-6.216;2023-02-01T01:38:28;102332.47;;;7.63;100.00
42591;BME280;28218;53.342;-6.216;2023-02-01T01:40:56;102316.81;;;7.62;100.00
42591;BME280;28218;53.342;-6.216;2023-02-01T01:43:24;102321.13;;;7.63;100.00
42591;BME280;28218;53.342;-6.216;2023-02-01T01:45:53;102314.81;;;7.65;100.00
42591;BME280;28218;53.342;-6.216;2023-02-01T01:48:26;102320.78;;;7.67;100.00
42591;BME280;28218;53.342;-6.216;2023-02-01T01:50:58;102307.34;;;7.72;100.00
42591;BME280;28218;53.342;-6.216;2023-02-01T01:53:28;102297.78;;;7.71;100.00
42591;BME280;28218;53.342;-6.216;2023-02-01T01:55:58;102300.19;;;7.74;100.00
42591;BME280;28218;53.342;-6.216;2023-02-01T01:58:29;102297.06;;;7.69;100.00
42591;BME280;28218;53.342;-6.216;2023-02-01T02:00:59;102294.56;;;7.67;100.00
42591;BME280;28218;53.342;-6.216;2023-02-01T02:03:32;102282.38;;;7.66;100.00
42591;BME280;28218;53.342;-6.216;2023-02-01T02:06:03;102284.28;;;7.64;100.00
42591;BME280;28218;53.342;-6.216;2023-02-01T02:08:34;102278.31;;;7.62;100.00
42591;BME280;28218;53.342;-6.216;2023-02-01T02:11:02;102280.94;;;7.62;100.00
42591;BME280;28218;53.342;-6.216;2023-02-01T02:13:32;102270.44;;;7.62;100.00
42591;BME280;28218;53.342;-6.216;2023-02-01T02:22:40;102273.16;;;7.61;100.00
42591;BME280;28218;53.342;-6.216;2023-02-01T02:25:19;102273.91;;;7.63;100.00
42591;BME280;28218;53.342;-6.216;2023-02-01T02:27:55;102273.16;;;7.61;100.00
42591;BME280;28218;53.342;-6.216;2023-02-01T02:30:41;102265.28;;;7.61;100.00
42591;BME280;28218;53.342;-6.216;2023-02-01T02:33:46;102269.69;;;7.60;100.00
42591;BME280;28218;53.342;-6.216;2023-02-01T02:36:21;102262.78;;;7.59;100.00
42591;BME280;28218;53.342;-6.216;2023-02-01T02:39:04;102262.66;;;7.61;100.00
42591;BME280;28218;53.342;-6.216;2023-02-01T02:41:44;102262.91;;;7.58;100.00
42591;BME280;28218;53.342;-6.216;2023-02-01T02:44:35;102265.41;;;7.59;100.00
42591;BME280;28218;53.342;-6.216;2023-02-01T02:47:27;102264.56;;;7.59;100.00
42591;BME280;28218;53.342;-6.216;2023-02-01T02:50:15;102273.91;;;7.63;100.00
42591;BME280;28218;53.342;-6.216;2023-02-01T02:53:07;102285.13;;;7.65;100.00
42591;BME280;28218;53.342;-6.216;2023-02-01T02:55:55;102260.78;;;7.63;100.00
42591;BME280;28218;53.342;-6.216;2023-02-01T02:58:43;102257.00;;;7.67;100.00
42591;BME280;28218;53.342;-6.216;2023-02-01T03:01:30;102256.25;;;7.65;100.00
42591;BME280;28218;53.342;-6.216;2023-02-01T03:04:16;102259.09;;;7.62;100.00
42591;BME280;28218;53.342;-6.216;2023-02-01T03:06:48;102247.75;;;7.61;100.00
42591;BME280;28218;53.342;-6.216;2023-02-01T03:09:20;102251.13;;;7.63;100.00
42591;BME280;28218;53.342;-6.216;2023-02-01T03:11:58;102258.38;;;7.60;100.00
42591;BME280;28218;53.342;-6.216;2023-02-01T03:14:47;102250.00;;;7.55;100.00
42591;BME280;28218;53.342;-6.216;2023-02-01T03:17:21;102236.06;;;7.54;100.00
42591;BME280;28218;53.342;-6.216;2023-02-01T03:19:55;102236.06;;;7.54;100.00
42591;BME280;28218;53.342;-6.216;2023-02-01T03:22:28;102252.84;;;7.52;100.00
42591;BME280;28218;53.342;-6.216;2023-02-01T03:25:01;102249.25;;;7.53;100.00
42591;BME280;28218;53.342;-6.216;2023-02-01T03:27:32;102248.53;;;7.51;100.00
42591;BME280;28218;53.342;-6.216;2023-02-01T03:30:07;102258.09;;;7.52;100.00
42591;BME280;28218;53.342;-6.216;2023-02-01T03:32:39;102256.22;;;7.54;100.00
42591;BME280;28218;53.342;-6.216;2023-02-01T03:35:40;102237.00;;;7.53;100.00
42591;BME280;28218;53.342;-6.216;2023-02-01T03:38:17;102251.78;;;7.54;100.00
42591;BME280;28218;53.342;-6.216;2023-02-01T03:40:51;102241.38;;;7.53;100.00
42591;BME280;28218;53.342;-6.216;2023-02-01T03:43:23;102232.59;;;7.54;100.00
42591;BME280;28218;53.342;-6.216;2023-02-01T03:45:57;102237.09;;;7.52;100.00
42591;BME280;28218;53.342;-6.216;2023-02-01T03:48:28;102244.97;;;7.52;100.00
42591;BME280;28218;53.342;-6.216;2023-02-01T03:51:01;102236.25;;;7.51;100.00
42591;BME280;28218;53.342;-6.216;2023-02-01T03:53:33;102234.47;;;7.52;100.00
42591;BME280;28218;53.342;-6.216;2023-02-01T03:56:04;102217.28;;;7.48;100.00
42591;BME280;28218;53.342;-6.216;2023-02-01T03:58:33;102214.44;;;7.51;100.00
42591;BME280;28218;53.342;-6.216;2023-02-01T04:01:02;102201.34;;;7.51;100.00
42591;BME280;28218;53.342;-6.216;2023-02-01T04:03:30;102202.16;;;7.51;100.00
42591;BME280;28218;53.342;-6.216;2023-02-01T04:06:00;102192.63;;;7.50;100.00
42591;BME280;28218;53.342;-6.216;2023-02-01T04:08:29;102200.28;;;7.53;100.00
42591;BME280;28218;53.342;-6.216;2023-02-01T04:10:57;102180.34;;;7.51;100.00
42591;BME280;28218;53.342;-6.216;2023-02-01T04:13:25;102184.44;;;7.55;100.00
42591;BME280;28218;53.342;-6.216;2023-02-01T04:15:53;102172.28;;;7.54;100.00
42591;BME280;28218;53.342;-6.216;2023-02-01T04:18:21;102172.03;;;7.57;100.00
42591;BME280;28218;53.342;-6.216;2023-02-01T04:20:49;102178.09;;;7.57;100.00
42591;BME280;28218;53.342;-6.216;2023-02-01T04:23:19;102177.28;;;7.57;100.00
42591;BME280;28218;53.342;-6.216;2023-02-01T04:25:48;102162.50;;;7.56;100.00
42591;BME280;28218;53.342;-6.216;2023-02-01T04:28:16;102168.56;;;7.56;100.00
42591;BME280;28218;53.342;-6.216;2023-02-01T04:30:45;102176.44;;;7.56;100.00
42591;BME280;28218;53.342;-6.216;2023-02-01T04:33:14;102164.06;;;7.58;100.00
42591;BME280;28218;53.342;-6.216;2023-02-01T04:35:42;102174.66;;;7.57;100.00
42591;BME280;28218;53.342;-6.216;2023-02-01T04:38:10;102168.34;;;7.59;100.00
42591;BME280;28218;53.342;-6.216;2023-02-01T04:40:40;102164.78;;;7.60;100.00
42591;BME280;28218;53.342;-6.216;2023-02-01T04:43:08;102163.22;;;7.58;100.00
42591;BME280;28218;53.342;-6.216;2023-02-01T04:45:36;102163.22;;;7.58;100.00
42591;BME280;28218;53.342;-6.216;2023-02-01T04:48:05;102174.44;;;7.60;100.00
42591;BME280;28218;53.342;-6.216;2023-02-01T04:50:33;102167.28;;;7.62;100.00
42591;BME280;28218;53.342;-6.216;2023-02-01T04:53:01;102189.13;;;7.62;100.00
42591;BME280;28218;53.342;-6.216;2023-02-01T04:55:30;102176.84;;;7.63;100.00
42591;BME280;28218;53.342;-6.216;2023-02-01T04:58:01;102188.03;;;7.65;100.00
42591;BME280;28218;53.342;-6.216;2023-02-01T05:00:29;102183.88;;;7.62;100.00
42591;BME280;28218;53.342;-6.216;2023-02-01T05:02:59;102176.72;;;7.64;100.00
42591;BME280;28218;53.342;-6.216;2023-02-01T05:05:28;102162.78;;;7.64;100.00
42591;BME280;28218;53.342;-6.216;2023-02-01T05:07:56;102190.53;;;7.66;100.00
42591;BME280;28218;53.342;-6.216;2023-02-01T05:10:24;102194.97;;;7.66;100.00
42591;BME280;28218;53.342;-6.216;2023-02-01T05:12:53;102193.16;;;7.66;100.00
42591;BME280;28218;53.342;-6.216;2023-02-01T05:15:40;102187.34;;;7.63;100.00
42591;BME280;28218;53.342;-6.216;2023-02-01T05:18:11;102183.13;;;7.60;100.00
42591;BME280;28218;53.342;-6.216;2023-02-01T05:20:39;102178.84;;;7.59;100.00
42591;BME280;28218;53.342;-6.216;2023-02-01T05:23:07;102189.13;;;7.62;100.00
42591;BME280;28218;53.342;-6.216;2023-02-01T05:25:35;102205.06;;;7.59;100.00
42591;BME280;28218;53.342;-6.216;2023-02-01T05:28:04;102178.97;;;7.58;100.00
42591;BME280;28218;53.342;-6.216;2023-02-01T05:30:32;102202.56;;;7.58;100.00
42591;BME280;28218;53.342;-6.216;2023-02-01T05:33:03;102217.38;;;7.59;100.00
42591;BME280;28218;53.342;-6.216;2023-02-01T05:35:31;102206.63;;;7.62;100.00
42591;BME280;28218;53.342;-6.216;2023-02-01T05:37:59;102217.97;;;7.62;100.00
42591;BME280;28218;53.342;-6.216;2023-02-01T05:40:28;102222.38;;;7.62;100.00
42591;BME280;28218;53.342;-6.216;2023-02-01T05:42:56;102226.69;;;7.63;100.00
42591;BME280;28218;53.342;-6.216;2023-02-01T05:45:24;102212.50;;;7.65;100.00
42591;BME280;28218;53.342;-6.216;2023-02-01T05:47:55;102225.72;;;7.64;100.00
42591;BME280;28218;53.342;-6.216;2023-02-01T05:50:25;102213.56;;;7.63;100.00
42591;BME280;28218;53.342;-6.216;2023-02-01T05:52:53;102214.41;;;7.63;100.00
42591;BME280;28218;53.342;-6.216;2023-02-01T05:55:21;102200.44;;;7.63;100.00
42591;BME280;28218;53.342;-6.216;2023-02-01T05:57:49;102203.41;;;7.58;100.00
42591;BME280;28218;53.342;-6.216;2023-02-01T06:00:18;102215.56;;;7.59;100.00
42591;BME280;28218;53.342;-6.216;2023-02-01T06:02:48;102195.63;;;7.57;100.00
42591;BME280;28218;53.342;-6.216;2023-02-01T06:05:16;102204.94;;;7.61;100.00
42591;BME280;28218;53.342;-6.216;2023-02-01T06:07:46;102209.69;;;7.56;100.00
42591;BME280;28218;53.342;-6.216;2023-02-01T06:10:15;102206.13;;;7.57;100.00
42591;BME280;28218;53.342;-6.216;2023-02-01T06:12:44;102206.13;;;7.57;100.00
42591;BME280;28218;53.342;-6.216;2023-02-01T06:15:13;102205.19;;;7.58;100.00
42591;BME280;28218;53.342;-6.216;2023-02-01T06:17:43;102209.50;;;7.59;100.00
42591;BME280;28218;53.342;-6.216;2023-02-01T06:20:13;102203.28;;;7.60;100.00
42591;BME280;28218;53.342;-6.216;2023-02-01T06:22:41;102202.34;;;7.61;100.00
42591;BME280;28218;53.342;-6.216;2023-02-01T06:25:11;102207.50;;;7.62;100.00
42591;BME280;28218;53.342;-6.216;2023-02-01T06:27:40;102204.00;;;7.62;100.00
42591;BME280;28218;53.342;-6.216;2023-02-01T06:30:09;102211.16;;;7.60;100.00
42591;BME280;28218;53.342;-6.216;2023-02-01T06:32:37;102209.16;;;7.63;100.00
42591;BME280;28218;53.342;-6.216;2023-02-01T06:35:07;102203.06;;;7.63;100.00
42591;BME280;28218;53.342;-6.216;2023-02-01T06:37:37;102200.66;;;7.60;100.00
42591;BME280;28218;53.342;-6.216;2023-02-01T06:40:06;102192.59;;;7.63;100.00
42591;BME280;28218;53.342;-6.216;2023-02-01T06:42:37;102189.00;;;7.64;100.00
42591;BME280;28218;53.342;-6.216;2023-02-01T06:45:06;102180.50;;;7.60;100.00
42591;BME280;28218;53.342;-6.216;2023-02-01T06:47:34;102210.44;;;7.58;100.00
42591;BME280;28218;53.342;-6.216;2023-02-01T06:50:03;102198.88;;;7.60;100.00
42591;BME280;28218;53.342;-6.216;2023-02-01T06:52:31;102201.63;;;7.59;100.00
42591;BME280;28218;53.342;-6.216;2023-02-01T06:54:59;102211.03;;;7.61;100.00
42591;BME280;28218;53.342;-6.216;2023-02-01T06:57:27;102204.13;;;7.60;100.00
42591;BME280;28218;53.342;-6.216;2023-02-01T06:59:59;102192.78;;;7.60;100.00
42591;BME280;28218;53.342;-6.216;2023-02-01T07:02:27;102192.59;;;7.63;100.00
42591;BME280;28218;53.342;-6.216;2023-02-01T07:04:56;102184.59;;;7.64;100.00
42591;BME280;28218;53.342;-6.216;2023-02-01T07:07:24;102183.75;;;7.64;100.00
42591;BME280;28218;53.342;-6.216;2023-02-01T07:09:54;102169.81;;;7.63;100.00
42591;BME280;28218;53.342;-6.216;2023-02-01T07:12:23;102191.75;;;7.62;100.00
42591;BME280;28218;53.342;-6.216;2023-02-01T07:14:51;102195.22;;;7.63;100.00
42591;BME280;28218;53.342;-6.216;2023-02-01T07:17:21;102204.53;;;7.67;100.00
42591;BME280;28218;53.342;-6.216;2023-02-01T07:19:49;102196.75;;;7.65;100.00
42591;BME280;28218;53.342;-6.216;2023-02-01T07:22:18;102179.97;;;7.68;100.00
42591;BME280;28218;53.342;-6.216;2023-02-01T07:24:46;102187.72;;;7.69;100.00
42591;BME280;28218;53.342;-6.216;2023-02-01T07:27:14;102191.91;;;7.72;100.00
42591;BME280;28218;53.342;-6.216;2023-02-01T07:29:42;102200.47;;;7.74;100.00
42591;BME280;28218;53.342;-6.216;2023-02-01T07:32:10;102199.53;;;7.75;100.00
42591;BME280;28218;53.342;-6.216;2023-02-01T07:34:46;102195.13;;;7.76;100.00
42591;BME280;28218;53.342;-6.216;2023-02-01T07:37:14;102190.44;;;7.68;100.00
42591;BME280;28218;53.342;-6.216;2023-02-01T07:39:46;102206.81;;;7.72;100.00
42591;BME280;28218;53.342;-6.216;2023-02-01T07:42:14;102204.78;;;7.75;100.00
42591;BME280;28218;53.342;-6.216;2023-02-01T07:44:42;102214.44;;;7.75;100.00
42591;BME280;28218;53.342;-6.216;2023-02-01T07:47:10;102213.59;;;7.74;100.00
42591;BME280;28218;53.342;-6.216;2023-02-01T07:49:38;102210.97;;;7.74;100.00
42591;BME280;28218;53.342;-6.216;2023-02-01T07:52:08;102218.13;;;7.72;100.00
42591;BME280;28218;53.342;-6.216;2023-02-01T07:54:37;102227.44;;;7.76;100.00
42591;BME280;28218;53.342;-6.216;2023-02-01T07:57:06;102216.94;;;7.76;100.00
42591;BME280;28218;53.342;-6.216;2023-02-01T07:59:35;102217.47;;;7.81;100.00
42591;BME280;28218;53.342;-6.216;2023-02-01T08:02:23;102224.13;;;7.85;100.00
42591;BME280;28218;53.342;-6.216;2023-02-01T08:04:52;102231.09;;;7.86;100.00
42591;BME280;28218;53.342;-6.216;2023-02-01T08:07:21;102219.63;;;7.87;100.00
42591;BME280;28218;53.342;-6.216;2023-02-01T08:09:50;102229.78;;;7.92;100.00
42591;BME280;28218;53.342;-6.216;2023-02-01T08:12:18;102237.78;;;7.90;100.00
42591;BME280;28218;53.342;-6.216;2023-02-01T08:14:46;102235.16;;;7.90;100.00
42591;BME280;28218;53.342;-6.216;2023-02-01T08:17:14;102234.41;;;7.88;100.00
42591;BME280;28218;53.342;-6.216;2023-02-01T08:19:42;102239.78;;;7.87;100.00
42591;BME280;28218;53.342;-6.216;2023-02-01T08:22:10;102237.78;;;7.90;100.00
42591;BME280;28218;53.342;-6.216;2023-02-01T08:24:40;102241.94;;;7.93;100.00
42591;BME280;28218;53.342;-6.216;2023-02-01T08:27:08;102227.78;;;7.96;100.00
42591;BME280;28218;53.342;-6.216;2023-02-01T08:29:36;102236.34;;;7.98;100.00
42591;BME280;28218;53.342;-6.216;2023-02-01T08:32:04;102239.94;;;7.97;100.00
42591;BME280;28218;53.342;-6.216;2023-02-01T08:34:33;102233.38;;;8.02;100.00
42591;BME280;28218;53.342;-6.216;2023-02-01T08:37:01;102242.22;;;8.01;100.00
42591;BME280;28218;53.342;-6.216;2023-02-01T08:39:30;102251.63;;;8.04;100.00
42591;BME280;28218;53.342;-6.216;2023-02-01T08:41:59;102253.34;;;8.05;100.00
42591;BME280;28218;53.342;-6.216;2023-02-01T08:44:45;102259.91;;;8.10;100.00
42591;BME280;28218;53.342;-6.216;2023-02-01T08:47:13;102251.69;;;8.15;100.00
42591;BME280;28218;53.342;-6.216;2023-02-01T08:49:42;102244.53;;;8.17;100.00
42591;BME280;28218;53.342;-6.216;2023-02-01T08:52:10;102254.56;;;8.23;100.00
42591;BME280;28218;53.342;-6.216;2023-02-01T08:54:41;102248.13;;;8.27;100.00
42591;BME280;28218;53.342;-6.216;2023-02-01T08:57:11;102246.94;;;8.31;100.00
42591;BME280;28218;53.342;-6.216;2023-02-01T08:59:39;102239.59;;;8.36;100.00
42591;BME280;28218;53.342;-6.216;2023-02-01T09:02:08;102248.63;;;8.32;100.00
42591;BME280;28218;53.342;-6.216;2023-02-01T09:04:39;102252.09;;;8.33;100.00
42591;BME280;28218;53.342;-6.216;2023-02-01T09:07:08;102254.59;;;8.34;100.00
42591;BME280;28218;53.342;-6.216;2023-02-01T09:09:36;102255.25;;;8.38;100.00
42591;BME280;28218;53.342;-6.216;2023-02-01T09:12:05;102262.03;;;8.40;100.00
42591;BME280;28218;53.342;-6.216;2023-02-01T09:14:34;102256.44;;;8.45;100.00
42591;BME280;28218;53.342;-6.216;2023-02-01T09:17:03;102261.22;;;8.51;100.00
42591;BME280;28218;53.342;-6.216;2023-02-01T09:19:32;102261.47;;;8.59;100.00
42591;BME280;28218;53.342;-6.216;2023-02-01T09:22:00;102259.59;;;8.61;100.00
42591;BME280;28218;53.342;-6.216;2023-02-01T09:24:28;102258.72;;;8.61;100.00
42591;BME280;28218;53.342;-6.216;2023-02-01T09:26:56;102262.94;;;8.63;100.00
42591;BME280;28218;53.342;-6.216;2023-02-01T09:29:25;102257.53;;;8.65;100.00
42591;BME280;28218;53.342;-6.216;2023-02-01T09:31:54;102266.88;;;8.69;100.00
42591;BME280;28218;53.342;-6.216;2023-02-01T09:34:30;102271.78;;;8.74;100.00
42591;BME280;28218;53.342;-6.216;2023-02-01T09:36:59;102283.84;;;8.76;100.00
42591;BME280;28218;53.342;-6.216;2023-02-01T09:39:27;102276.94;;;8.75;100.00
42591;BME280;28218;53.342;-6.216;2023-02-01T09:42:08;102274.03;;;8.78;100.00
42591;BME280;28218;53.342;-6.216;2023-02-01T09:45:00;102269.41;;;8.82;100.00
42591;BME280;28218;53.342;-6.216;2023-02-01T09:47:35;102270.72;;;8.87;100.00
42591;BME280;28218;53.342;-6.216;2023-02-01T09:50:08;102274.91;;;8.90;100.00
42591;BME280;28218;53.342;-6.216;2023-02-01T09:52:44;102275.47;;;8.93;100.00
42591;BME280;28218;53.342;-6.216;2023-02-01T09:55:16;102279.66;;;8.96;100.00
42591;BME280;28218;53.342;-6.216;2023-02-01T09:57:51;102281.22;;;8.99;100.00
42591;BME280;28218;53.342;-6.216;2023-02-01T10:00:25;102264.25;;;9.03;100.00
42591;BME280;28218;53.342;-6.216;2023-02-01T10:02:56;102278.13;;;9.05;100.00
42591;BME280;28218;53.342;-6.216;2023-02-01T10:05:45;102282.91;;;9.11;100.00
42591;BME280;28218;53.342;-6.216;2023-02-01T10:08:24;102281.84;;;9.13;100.00
42591;BME280;28218;53.342;-6.216;2023-02-01T10:10:56;102280.88;;;9.14;100.00
42591;BME280;28218;53.342;-6.216;2023-02-01T10:13:44;102270.69;;;9.21;100.00
42591;BME280;28218;53.342;-6.216;2023-02-01T10:16:25;102273.69;;;9.28;100.00
42591;BME280;28218;53.342;-6.216;2023-02-01T10:19:14;102275.97;;;9.32;100.00
42591;BME280;28218;53.342;-6.216;2023-02-01T10:21:54;102277.13;;;9.39;100.00
42591;BME280;28218;53.342;-6.216;2023-02-01T10:24:35;102281.31;;;9.42;100.00
42591;BME280;28218;53.342;-6.216;2023-02-01T10:27:12;102271.13;;;9.48;100.00
42591;BME280;28218;53.342;-6.216;2023-02-01T10:29:43;102268.97;;;9.54;100.00
42591;BME280;28218;53.342;-6.216;2023-02-01T10:32:15;102277.31;;;9.59;100.00
42591;BME280;28218;53.342;-6.216;2023-02-01T10:34:48;102264.06;;;9.60;100.00
42591;BME280;28218;53.342;-6.216;2023-02-01T10:37:28;102279.94;;;9.70;100.00
42591;BME280;28218;53.342;-6.216;2023-02-01T10:40:00;102264.84;;;9.72;100.00
42591;BME280;28218;53.342;-6.216;2023-02-01T10:42:29;102284.31;;;9.81;100.00
42591;BME280;28218;53.342;-6.216;2023-02-01T10:44:59;102284.19;;;9.82;100.00
42591;BME280;28218;53.342;-6.216;2023-02-01T10:47:28;102299.50;;;9.88;100.00
42591;BME280;28218;53.342;-6.216;2023-02-01T10:50:08;102296.69;;;10.01;100.00
42591;BME280;28218;53.342;-6.216;2023-02-01T10:52:45;102297.59;;;10.11;100.00
42591;BME280;28218;53.342;-6.216;2023-02-01T10:55:33;102290.88;;;10.18;100.00
42591;BME280;28218;53.342;-6.216;2023-02-01T10:58:03;102301.03;;;10.23;100.00
42591;BME280;28218;53.342;-6.216;2023-02-01T11:00:41;102306.78;;;10.28;100.00
42591;BME280;28218;53.342;-6.216;2023-02-01T11:03:30;102312.38;;;10.35;100.00
42591;BME280;28218;53.342;-6.216;2023-02-01T11:06:01;102312.38;;;10.35;100.00
42591;BME280;28218;53.342;-6.216;2023-02-01T11:08:30;102318.94;;;10.40;100.00
42591;BME280;28218;53.342;-6.216;2023-02-01T11:11:00;102335.59;;;10.41;100.00
42591;BME280;28218;53.342;-6.216;2023-02-01T11:13:29;102341.16;;;10.47;100.00
42591;BME280;28218;53.342;-6.216;2023-02-01T11:16:02;102334.69;;;10.52;100.00
42591;BME280;28218;53.342;-6.216;2023-02-01T11:18:31;102336.63;;;10.49;100.00
42591;BME280;28218;53.342;-6.216;2023-02-01T11:21:06;102335.84;;;10.59;100.00
42591;BME280;28218;53.342;-6.216;2023-02-01T11:23:40;102326.22;;;10.69;100.00
42591;BME280;28218;53.342;-6.216;2023-02-01T11:26:12;102324.94;;;10.63;100.00
42591;BME280;28218;53.342;-6.216;2023-02-01T11:28:46;102324.84;;;10.54;100.00
42591;BME280;28218;53.342;-6.216;2023-02-01T11:31:18;102326.09;;;10.49;100.00
42591;BME280;28218;53.342;-6.216;2023-02-01T11:33:50;102319.41;;;10.45;100.00
42591;BME280;28218;53.342;-6.216;2023-02-01T11:36:26;102318.56;;;10.45;100.00
42591;BME280;28218;53.342;-6.216;2023-02-01T11:39:09;102313.41;;;10.43;100.00
42591;BME280;28218;53.342;-6.216;2023-02-01T11:41:42;102309.25;;;10.41;100.00
42591;BME280;28218;53.342;-6.216;2023-02-01T11:44:22;102303.97;;;10.41;100.00
42591;BME280;28218;53.342;-6.216;2023-02-01T11:46:50;102311.28;;;10.37;100.00
42591;BME280;28218;53.342;-6.216;2023-02-01T11:49:21;102305.78;;;10.40;100.00
42591;BME280;28218;53.342;-6.216;2023-02-01T11:52:05;102306.47;;;10.42;100.00
42591;BME280;28218;53.342;-6.216;2023-02-01T11:54:53;102296.75;;;10.43;100.00
42591;BME280;28218;53.342;-6.216;2023-02-01T11:57:34;102288.47;;;10.47;100.00
42591;BME280;28218;53.342;-6.216;2023-02-01T12:00:38;102297.34;;;10.46;100.00
42591;BME280;28218;53.342;-6.216;2023-02-01T12:03:33;102291.53;;;10.53;100.00
42591;BME280;28218;53.342;-6.216;2023-02-01T12:06:13;102303.66;;;10.55;100.00
42591;BME280;28218;53.342;-6.216;2023-02-01T12:09:08;102295.84;;;10.54;100.00
42591;BME280;28218;53.342;-6.216;2023-02-01T12:11:48;102278.69;;;10.59;100.00
42591;BME280;28218;53.342;-6.216;2023-02-01T12:20:28;102287.94;;;10.74;100.00
42591;BME280;28218;53.342;-6.216;2023-02-01T12:23:09;102300.69;;;10.69;100.00
42591;BME280;28218;53.342;-6.216;2023-02-01T12:25:57;102279.00;;;10.66;100.00
42591;BME280;28218;53.342;-6.216;2023-02-01T12:28:38;102292.03;;;10.67;100.00
42591;BME280;28218;53.342;-6.216;2023-02-01T12:31:22;102301.75;;;10.67;100.00
42591;BME280;28218;53.342;-6.216;2023-02-01T12:34:07;102302.59;;;10.67;100.00
42591;BME280;28218;53.342;-6.216;2023-02-01T12:36:46;102285.44;;;10.73;100.00
42591;BME280;28218;53.342;-6.216;2023-02-01T12:39:22;102284.91;;;10.79;100.00
42591;BME280;28218;53.342;-6.216;2023-02-01T12:42:00;102286.31;;;10.83;100.00
42591;BME280;28218;53.342;-6.216;2023-02-01T12:44:39;102275.50;;;10.86;100.00
42591;BME280;28218;53.342;-6.216;2023-02-01T12:47:16;102284.13;;;10.88;100.00
42591;BME280;28218;53.342;-6.216;2023-02-01T12:49:51;102279.81;;;10.87;100.00
42591;BME280;28218;53.342;-6.216;2023-02-01T12:52:27;102293.94;;;10.86;100.00
42591;BME280;28218;53.342;-6.216;2023-02-01T12:55:05;102296.34;;;10.89;100.00
42591;BME280;28218;53.342;-6.216;2023-02-01T12:57:41;102289.81;;;10.93;100.00
42591;BME280;28218;53.342;-6.216;2023-02-01T13:00:19;102290.41;;;10.97;100.00
42591;BME280;28218;53.342;-6.216;2023-02-01T13:02:54;102283.31;;;10.97;100.00
42591;BME280;28218;53.342;-6.216;2023-02-01T13:05:28;102287.78;;;10.97;100.00
42591;BME280;28218;53.342;-6.216;2023-02-01T13:08:01;102286.94;;;10.96;100.00
42591;BME280;28218;53.342;-6.216;2023-02-01T13:10:34;102287.78;;;10.97;100.00
42591;BME280;28218;53.342;-6.216;2023-02-01T13:13:11;102288.84;;;10.94;100.00
42591;BME280;28218;53.342;-6.216;2023-02-01T13:15:43;102284.41;;;10.95;100.00
42591;BME280;28218;53.342;-6.216;2023-02-01T13:18:18;102285.25;;;10.95;100.00